createdAt,value
2023-03-14T00:03:11.256Z,4.72
2023-03-14T00:08:14.764Z,3.55
2023-03-14T00:13:17.354Z,6.55
2023-03-14T00:18:20.937Z,4.55
2023-03-14T00:23:23.382Z,3.85
2023-03-14T00:28:25.665Z,2.63
2023-03-14T00:33:27.822Z,3.63
2023-03-14T00:38:33.272Z,2.55
2023-03-14T00:43:37.707Z,2.88
2023-03-14T00:48:47.282Z,2.38
2023-03-14T00:53:51.728Z,3.97
2023-03-14T00:59:07.624Z,2.08
2023-03-14T01:04:14.361Z,2.50
2023-03-14T01:09:18.885Z,3.78
2023-03-14T01:14:21.000Z,2.78
2023-03-14T01:19:25.423Z,4.43
2023-03-14T01:24:29.698Z,6.13
2023-03-14T01:29:31.796Z,3.63
2023-03-14T01:34:34.050Z,4.03
2023-03-14T01:39:38.969Z,4.28
2023-03-14T01:44:59.433Z,3.20
2023-03-14T01:50:07.733Z,2.42
2023-03-14T01:55:22.490Z,2.00
2023-03-14T02:00:26.363Z,3.38
2023-03-14T02:05:49.541Z,3.08
2023-03-14T02:10:58.103Z,3.35
2023-03-14T02:16:13.899Z,3.03
2023-03-14T02:21:45.145Z,2.58
2023-03-14T02:27:30.838Z,3.72
2023-03-14T02:32:35.529Z,3.33
2023-03-14T02:38:04.245Z,3.22
2023-03-14T02:43:12.512Z,3.40
2023-03-14T02:48:36.066Z,2.85
2023-03-14T02:53:39.332Z,3.55
2023-03-14T02:58:46.861Z,3.77
2023-03-14T03:04:01.721Z,3.63
2023-03-14T03:09:09.590Z,2.67
2023-03-14T03:14:19.311Z,2.28
2023-03-14T03:19:31.325Z,1.30
2023-03-14T03:24:37.808Z,2.40
2023-03-14T03:29:42.308Z,2.65
2023-03-14T03:34:44.894Z,2.00
2023-03-14T03:39:51.996Z,2.20
2023-03-14T03:44:54.737Z,0.95
2023-03-14T03:49:59.185Z,1.88
2023-03-14T03:55:07.583Z,2.47
2023-03-14T04:00:13.806Z,1.48
2023-03-14T04:05:16.553Z,1.55
2023-03-14T04:10:29.540Z,3.40
2023-03-14T04:15:46.455Z,2.28
2023-03-14T04:20:59.744Z,1.55
2023-03-14T04:26:16.432Z,1.10
2023-03-14T04:31:23.752Z,2.08
2023-03-14T04:36:27.778Z,1.85
2023-03-14T04:41:37.328Z,1.58
2023-03-14T04:46:40.303Z,2.25
2023-03-14T04:51:59.107Z,1.50
2023-03-14T04:57:03.830Z,1.95
2023-03-14T05:02:17.017Z,3.15
2023-03-14T05:07:42.846Z,1.50
2023-03-14T05:13:06.779Z,2.45
2023-03-14T05:18:36.081Z,2.22
2023-03-14T05:24:04.770Z,1.83
2023-03-14T05:29:47.178Z,2.87
2023-03-14T05:35:10.236Z,1.15
2023-03-14T05:40:23.521Z,2.58
2023-03-14T05:45:44.438Z,2.13
2023-03-14T05:51:07.395Z,1.38
2023-03-14T05:56:26.798Z,1.52
2023-03-14T06:01:40.547Z,1.05
2023-03-14T06:06:54.058Z,1.20
2023-03-14T06:11:58.256Z,1.10
2023-03-14T06:17:03.247Z,1.00
2023-03-14T06:22:12.058Z,2.03
2023-03-14T06:27:14.755Z,2.92
2023-03-14T06:32:17.287Z,1.77
2023-03-14T06:37:21.045Z,1.85
2023-03-14T06:42:25.308Z,2.13
2023-03-14T06:47:29.692Z,1.80
2023-03-14T06:52:33.492Z,2.33
2023-03-14T06:57:37.195Z,1.30
2023-03-14T07:02:42.947Z,1.33
2023-03-14T07:08:11.266Z,1.30
2023-03-14T07:13:14.837Z,2.60
2023-03-14T07:18:27.567Z,1.48
2023-03-14T07:23:37.248Z,1.92
2023-03-14T07:28:39.538Z,1.63
2023-03-14T07:33:50.063Z,2.65
2023-03-14T07:38:54.627Z,2.88
2023-03-14T07:44:15.755Z,1.75
2023-03-14T07:49:18.972Z,2.38
2023-03-14T07:54:21.618Z,1.80
2023-03-14T07:59:24.107Z,2.00
2023-03-14T08:04:29.711Z,1.73
2023-03-14T08:09:38.787Z,1.88
2023-03-14T08:14:40.951Z,2.17
2023-03-14T08:19:44.108Z,2.13
2023-03-14T08:24:46.211Z,5.18
2023-03-14T08:29:48.313Z,2.65
2023-03-14T08:34:50.757Z,2.97
2023-03-14T08:39:53.779Z,2.25
2023-03-14T08:44:56.005Z,2.38
2023-03-14T08:49:58.102Z,2.65
2023-03-14T08:55:00.263Z,3.15
2023-03-14T09:00:02.402Z,2.28
2023-03-14T09:05:05.333Z,1.50
2023-03-14T09:10:09.022Z,1.92
2023-03-14T09:15:14.106Z,1.80
2023-03-14T09:20:16.632Z,2.78
2023-03-14T09:25:19.456Z,1.88
2023-03-14T09:30:22.713Z,1.92
2023-03-14T09:35:25.014Z,2.50
2023-03-14T09:40:35.528Z,2.00
2023-03-14T09:45:41.424Z,2.58
2023-03-14T09:50:59.856Z,3.40
2023-03-14T09:56:13.201Z,2.38
2023-03-14T10:01:23.323Z,1.75
2023-03-14T10:06:32.549Z,2.35
2023-03-14T10:11:35.712Z,1.70
2023-03-14T10:16:42.898Z,2.00
2023-03-14T10:21:55.654Z,2.50
2023-03-14T10:27:07.578Z,2.72
2023-03-14T10:32:21.101Z,4.20
2023-03-14T10:37:30.662Z,1.80
2023-03-14T10:42:52.961Z,2.35
2023-03-14T10:47:55.152Z,1.85
2023-03-14T10:53:03.069Z,1.88
2023-03-14T10:58:30.498Z,2.28
2023-03-14T11:03:36.839Z,1.80
2023-03-14T11:08:49.406Z,2.95
2023-03-14T11:13:55.620Z,1.92
2023-03-14T11:19:21.140Z,1.40
2023-03-14T11:25:01.083Z,1.48
2023-03-14T11:30:14.790Z,1.30
2023-03-14T11:35:37.748Z,3.08
2023-03-14T11:40:41.251Z,1.35
2023-03-14T11:45:55.393Z,1.58
2023-03-14T11:51:05.935Z,2.47
2023-03-14T11:56:30.254Z,2.72
2023-03-14T12:02:08.506Z,4.88
2023-03-14T12:07:31.884Z,1.83
2023-03-14T12:18:00.654Z,3.85
2023-03-14T12:23:34.958Z,1.45
2023-03-14T12:34:22.405Z,2.03
2023-03-14T12:40:18.960Z,1.58
2023-03-14T12:46:22.089Z,2.55
2023-03-14T12:51:36.322Z,1.42
2023-03-14T12:57:03.783Z,2.22
2023-03-14T13:02:09.064Z,2.65
2023-03-14T13:07:54.161Z,1.30
2023-03-14T13:13:28.043Z,2.53
2023-03-14T13:18:45.832Z,1.52
2023-03-14T13:24:07.056Z,2.50
2023-03-14T13:29:20.879Z,1.48
2023-03-14T13:34:45.520Z,1.30
2023-03-14T13:39:58.535Z,1.00
2023-03-14T13:45:01.362Z,1.10
2023-03-14T13:50:04.915Z,1.50
2023-03-14T13:55:25.781Z,2.28
2023-03-14T14:00:29.275Z,1.85
2023-03-14T14:05:36.352Z,1.42
2023-03-14T14:10:46.129Z,1.67
2023-03-14T14:15:52.695Z,1.00
2023-03-14T14:20:56.279Z,1.20
2023-03-14T14:26:02.192Z,0.88
2023-03-14T14:31:24.744Z,1.02
2023-03-14T14:36:31.520Z,1.13
2023-03-14T14:41:42.368Z,2.05
2023-03-14T14:46:44.657Z,0.60
2023-03-14T14:51:52.163Z,0.65
2023-03-14T14:57:05.429Z,1.35
2023-03-14T15:02:41.161Z,0.73
2023-03-14T15:07:52.885Z,2.13
2023-03-14T15:12:55.940Z,0.98
2023-03-14T15:17:58.346Z,0.95
2023-03-14T15:23:09.662Z,1.70
2023-03-14T15:28:32.152Z,1.08
2023-03-14T15:33:36.201Z,1.55
2023-03-14T15:38:38.304Z,1.13
2023-03-14T15:43:43.579Z,1.08
2023-03-14T15:48:50.522Z,1.27
2023-03-14T15:53:53.447Z,1.05
2023-03-14T15:58:56.923Z,0.73
2023-03-14T16:03:59.078Z,1.25
2023-03-14T16:09:01.296Z,0.93
2023-03-14T16:14:03.519Z,1.45
2023-03-14T16:19:08.064Z,1.15
2023-03-14T16:24:10.392Z,1.52
2023-03-14T16:29:12.625Z,1.48
2023-03-14T16:34:15.989Z,0.80
2023-03-14T16:39:19.594Z,0.70
2023-03-14T16:44:23.329Z,0.43
2023-03-14T16:49:39.283Z,0.60
2023-03-14T16:54:45.126Z,1.25
2023-03-14T16:59:47.296Z,0.73
2023-03-14T17:04:49.566Z,1.23
2023-03-14T17:09:51.784Z,1.15
2023-03-14T17:14:54.050Z,2.10
2023-03-14T17:19:56.171Z,1.77
2023-03-14T17:24:58.280Z,0.93
2023-03-14T17:30:00.598Z,1.58
2023-03-14T17:35:03.301Z,1.00
2023-03-14T17:40:07.335Z,0.73
2023-03-14T17:45:10.020Z,0.85
2023-03-14T17:50:17.248Z,0.70
2023-03-14T17:55:19.653Z,0.70
2023-03-14T18:00:24.174Z,0.90
2023-03-14T18:05:26.527Z,1.33
2023-03-14T18:10:28.712Z,2.00
2023-03-14T18:15:33.845Z,1.77
2023-03-14T18:20:36.057Z,0.68
2023-03-14T18:25:38.137Z,0.82
2023-03-14T18:30:40.900Z,1.48
2023-03-14T18:35:43.148Z,6.85
2023-03-14T18:40:45.350Z,4.28
2023-03-14T18:45:47.560Z,2.60
2023-03-14T18:50:50.666Z,1.70
2023-03-14T18:55:55.383Z,1.45
2023-03-14T19:01:03.218Z,1.70
2023-03-14T19:06:07.938Z,1.92
2023-03-14T19:11:12.378Z,1.73
2023-03-14T19:16:15.910Z,3.17
2023-03-14T19:21:35.877Z,1.88
2023-03-14T19:26:38.328Z,2.78
2023-03-14T19:31:40.571Z,4.20
2023-03-14T19:36:42.800Z,4.07
2023-03-14T19:41:44.926Z,5.50
2023-03-14T19:46:47.082Z,3.92
2023-03-14T19:51:50.052Z,6.40
2023-03-14T19:56:52.273Z,4.22
2023-03-14T20:01:58.205Z,4.45
2023-03-14T20:07:04.716Z,7.97
2023-03-14T20:12:07.791Z,5.47
2023-03-14T20:17:10.468Z,4.15
2023-03-14T20:22:12.745Z,4.97
2023-03-14T20:27:14.987Z,3.97
2023-03-14T20:32:18.682Z,4.18
2023-03-14T20:37:24.526Z,3.42
2023-03-14T20:42:27.208Z,4.88
2023-03-14T20:47:29.501Z,3.67
2023-03-14T20:52:31.969Z,5.03
2023-03-14T20:57:34.501Z,3.80
2023-03-14T21:02:36.713Z,3.67
2023-03-14T21:07:41.711Z,4.25
2023-03-14T21:12:44.029Z,5.00
2023-03-14T21:17:46.676Z,5.20
2023-03-14T21:22:48.904Z,4.88
2023-03-14T21:27:51.883Z,5.13
2023-03-14T21:32:54.327Z,5.50
2023-03-14T21:37:56.988Z,6.53
2023-03-14T21:42:59.239Z,4.72
2023-03-14T21:48:02.549Z,4.20
2023-03-14T21:53:05.712Z,3.95
2023-03-14T21:58:07.949Z,3.80
2023-03-14T22:03:13.989Z,3.97
2023-03-14T22:08:19.809Z,3.35
2023-03-14T22:13:24.466Z,2.67
2023-03-14T22:18:26.791Z,3.63
2023-03-14T22:23:29.199Z,3.45
2023-03-14T22:28:31.378Z,4.15
2023-03-14T22:33:33.570Z,3.88
2023-03-14T22:38:35.782Z,4.55
2023-03-14T22:43:38.138Z,3.67
2023-03-14T22:48:40.414Z,3.78
2023-03-14T22:53:42.738Z,2.28
2023-03-14T22:58:45.035Z,3.30
2023-03-14T23:03:47.309Z,3.67
2023-03-14T23:08:49.584Z,5.18
2023-03-14T23:13:52.253Z,3.03
2023-03-14T23:18:54.605Z,2.75
2023-03-14T23:23:57.017Z,2.75
2023-03-14T23:28:59.310Z,3.03
2023-03-14T23:34:01.892Z,2.67
2023-03-14T23:39:05.703Z,2.20
2023-03-14T23:44:07.867Z,3.35
2023-03-14T23:49:10.150Z,1.83
2023-03-14T23:54:12.426Z,2.17
2023-03-14T23:59:14.681Z,1.55
